Time;durP1;ratioP1;P1;durP2;ratioP2;P2;SDS_P1;SDS_P2;PMS_P1;PMS_P2;Temp;Humidity;BMP_temperature;BMP_pressure;BME280_temperature;BME280_humidity;BME280_pressure;Samples;Min_cycle;Max_cycle;Signal;HPM_P1;HPM_P2
2022/08/26 00:00:56;;;;;;;6.65;2.00;;;21.50;94.80;;;;;;5074771;28;20177;-71
2022/08/26 00:03:22;;;;;;;4.22;1.88;;;21.50;93.40;;;;;;5074127;28;20245;-71
2022/08/26 00:05:49;;;;;;;4.68;1.98;;;21.40;91.60;;;;;;5074693;28;20519;-70
2022/08/26 00:08:18;;;;;;;7.95;2.20;;;21.50;92.80;;;;;;5074013;28;20172;-70
2022/08/26 00:10:43;;;;;;;5.82;1.88;;;21.40;90.30;;;;;;5074729;28;20180;-70
2022/08/26 00:13:10;;;;;;;3.95;1.80;;;21.50;90.60;;;;;;5074604;28;20250;-71
2022/08/26 00:15:37;;;;;;;5.72;1.70;;;21.40;90.90;;;;;;5074461;28;20564;-70
2022/08/26 00:18:02;;;;;;;7.18;1.70;;;21.50;85.40;;;;;;5074295;28;20226;-70
2022/08/26 00:20:31;;;;;;;5.10;1.98;;;21.50;85.20;;;;;;5074036;28;20192;-70
2022/08/26 00:22:58;;;;;;;4.78;1.77;;;21.50;77.40;;;;;;5074033;28;20291;-70
2022/08/26 00:25:24;;;;;;;6.88;1.60;;;21.50;74.10;;;;;;5074371;28;20200;-70
2022/08/26 00:27:51;;;;;;;3.83;1.60;;;21.40;69.00;;;;;;5074156;28;20176;-71
2022/08/26 00:30:21;;;;;;;3.50;1.40;;;21.40;69.00;;;;;;5073964;28;20214;-70
2022/08/26 00:32:47;;;;;;;2.92;1.40;;;21.40;66.90;;;;;;5074052;28;20191;-70
2022/08/26 00:35:14;;;;;;;10.73;1.48;;;21.40;61.20;;;;;;5074162;28;20679;-71
2022/08/26 00:37:40;;;;;;;5.13;1.50;;;21.40;62.70;;;;;;5073571;28;20267;-71
2022/08/26 00:40:11;;;;;;;1.45;1.10;;;21.30;56.60;;;;;;5073943;28;20172;-71
2022/08/26 00:42:36;;;;;;;4.65;1.77;;;21.20;58.00;;;;;;5074166;28;20168;-70
2022/08/26 00:45:03;;;;;;;7.70;1.70;;;21.30;60.00;;;;;;5072672;28;20180;-70
2022/08/26 00:47:44;;;;;;;5.32;1.42;;;21.20;55.90;;;;;;5073667;28;20257;-71
2022/08/26 00:50:14;;;;;;;3.55;1.73;;;21.20;54.80;;;;;;5073959;28;20256;-71
2022/08/26 00:52:41;;;;;;;4.13;1.60;;;21.10;58.80;;;;;;5073833;28;20173;-70
2022/08/26 00:55:17;;;;;;;2.95;1.35;;;21.10;57.30;;;;;;5073660;28;21085;-70
2022/08/26 00:57:44;;;;;;;3.15;1.55;;;21.10;59.70;;;;;;5073602;28;20226;-70
2022/08/26 01:00:18;;;;;;;5.30;1.45;;;21.10;56.50;;;;;;5073381;28;20625;-71
2022/08/26 01:02:46;;;;;;;4.25;1.60;;;21.00;56.00;;;;;;5073679;28;20195;-70
2022/08/26 01:05:13;;;;;;;5.95;1.50;;;21.10;56.30;;;;;;5073090;28;20168;-70
2022/08/26 01:07:38;;;;;;;1.95;1.23;;;21.10;52.40;;;;;;5073461;28;20199;-71
2022/08/26 01:10:09;;;;;;;4.65;1.52;;;21.10;53.20;;;;;;5073185;28;20259;-71
2022/08/26 01:12:48;;;;;;;3.63;1.40;;;21.10;56.90;;;;;;5073374;28;20310;-71
2022/08/26 01:15:19;;;;;;;4.72;1.60;;;21.10;56.00;;;;;;5072772;28;20199;-71
2022/08/26 01:17:45;;;;;;;4.35;1.40;;;21.10;59.10;;;;;;5072162;28;20176;-71
2022/08/26 01:20:41;;;;;;;3.45;1.70;;;21.10;60.50;;;;;;5072968;28;20196;-71
2022/08/26 01:23:09;;;;;;;5.40;1.75;;;21.00;62.90;;;;;;5073510;28;20648;-71
2022/08/26 01:25:39;;;;;;;6.05;1.65;;;21.00;71.40;;;;;;5073332;28;20261;-71
2022/08/26 01:28:13;;;;;;;5.63;1.88;;;20.90;78.40;;;;;;5073260;28;20165;-71
2022/08/26 01:30:40;;;;;;;2.50;1.52;;;20.90;80.20;;;;;;5073495;28;20230;-71
2022/08/26 01:33:11;;;;;;;7.57;2.17;;;20.90;82.50;;;;;;5073473;28;20176;-71
2022/08/26 01:35:37;;;;;;;5.65;2.28;;;20.90;89.60;;;;;;5072732;28;20211;-71
2022/08/26 01:38:04;;;;;;;4.63;1.70;;;20.80;91.70;;;;;;5073292;28;20165;-71
2022/08/26 01:40:36;;;;;;;5.38;1.77;;;20.80;94.20;;;;;;5073167;28;20207;-71
2022/08/26 01:43:04;;;;;;;2.75;1.70;;;20.80;92.70;;;;;;5073269;28;20173;-71
2022/08/26 01:45:33;;;;;;;4.97;1.80;;;20.80;92.90;;;;;;5073322;28;20259;-71
2022/08/26 01:48:02;;;;;;;2.75;1.65;;;20.80;94.10;;;;;;5073008;28;20168;-71
2022/08/26 01:50:32;;;;;;;5.63;2.03;;;20.80;94.20;;;;;;5072859;28;20255;-71
2022/08/26 01:53:04;;;;;;;8.52;2.10;;;20.70;95.80;;;;;;5072917;28;20164;-71
2022/08/26 01:55:32;;;;;;;2.80;1.60;;;20.70;99.40;;;;;;5073069;28;20188;-70
2022/08/26 01:58:00;;;;;;;4.78;1.75;;;20.70;99.90;;;;;;5073095;28;20624;-70
2022/08/26 02:00:25;;;;;;;1.98;1.80;;;20.60;99.50;;;;;;5071680;28;20227;-70
2022/08/26 02:03:15;;;;;;;4.88;1.60;;;20.60;99.90;;;;;;5072617;28;20648;-71
2022/08/26 02:05:41;;;;;;;6.68;1.58;;;20.70;99.90;;;;;;5072824;28;20208;-71
2022/08/26 02:08:07;;;;;;;3.95;1.63;;;20.80;97.80;;;;;;5072714;28;20179;-71
2022/08/26 02:10:33;;;;;;;3.55;1.50;;;20.80;97.70;;;;;;5073000;28;20216;-71
2022/08/26 02:12:59;;;;;;;2.85;1.55;;;20.80;96.10;;;;;;5072842;28;20207;-70
2022/08/26 02:15:24;;;;;;;4.45;1.60;;;20.80;97.30;;;;;;5072886;28;20229;-70
2022/08/26 02:17:50;;;;;;;6.15;1.75;;;20.60;99.90;;;;;;5072491;28;20632;-70
2022/08/26 02:20:19;;;;;;;3.92;1.40;;;20.60;99.90;;;;;;5071351;28;20272;-70
2022/08/26 02:22:46;;;;;;;7.40;1.50;;;20.70;99.90;;;;;;5072766;28;20267;-70
2022/08/26 02:25:32;;;;;;;4.82;2.03;;;20.70;99.90;;;;;;5072700;28;20643;-71
2022/08/26 02:27:59;;;;;;;6.07;1.70;;;20.70;99.90;;;;;;5075445;28;20169;-70
2022/08/26 02:30:31;;;;;;;8.63;1.73;;;20.70;99.40;;;;;;5076445;28;20169;-72
2022/08/26 02:33:02;;;;;;;3.97;1.70;;;20.70;99.90;;;;;;5076126;28;20632;-70
2022/08/26 02:35:29;;;;;;;4.05;1.55;;;20.80;99.50;;;;;;5075262;28;20639;-70
2022/08/26 02:37:54;;;;;;;4.15;1.70;;;20.80;97.60;;;;;;5076232;28;20208;-70
2022/08/26 02:40:27;;;;;;;3.55;1.40;;;20.80;98.50;;;;;;5075931;28;20180;-70
2022/08/26 02:42:53;;;;;;;4.47;1.67;;;20.80;98.60;;;;;;5076285;28;20191;-70
2022/08/26 02:45:19;;;;;;;5.05;1.98;;;20.80;97.00;;;;;;5076099;28;20384;-70
2022/08/26 02:47:46;;;;;;;4.80;1.80;;;20.70;97.40;;;;;;5075794;28;20165;-70
2022/08/26 02:50:13;;;;;;;5.70;1.60;;;20.70;96.40;;;;;;5076006;28;20174;-70
2022/08/26 02:52:38;;;;;;;4.65;1.45;;;20.70;99.00;;;;;;5076090;28;20184;-70
2022/08/26 02:55:05;;;;;;;6.85;1.70;;;20.70;98.10;;;;;;5076133;28;20565;-70
2022/08/26 02:57:31;;;;;;;5.68;1.80;;;20.70;97.60;;;;;;5075905;28;20172;-70
2022/08/26 02:59:59;;;;;;;3.10;1.60;;;20.60;99.90;;;;;;5075760;28;20208;-70
2022/08/26 03:02:26;;;;;;;5.50;1.63;;;20.60;99.90;;;;;;5075744;28;20263;-70
2022/08/26 03:04:51;;;;;;;7.20;2.00;;;20.70;99.90;;;;;;5075906;28;20168;-70
2022/08/26 03:07:18;;;;;;;4.55;1.77;;;20.70;99.90;;;;;;5075818;28;20177;-70
2022/08/26 03:09:44;;;;;;;6.70;1.98;;;20.70;98.90;;;;;;5075529;28;20224;-70
2022/08/26 03:12:10;;;;;;;8.70;2.05;;;20.60;98.90;;;;;;5075880;28;20263;-70
2022/08/26 03:14:36;;;;;;;2.75;1.65;;;20.70;98.50;;;;;;5075656;28;20206;-70
2022/08/26 03:17:02;;;;;;;4.90;1.70;;;20.70;98.90;;;;;;5074942;28;20200;-70
2022/08/26 03:19:29;;;;;;;4.13;1.77;;;20.70;98.80;;;;;;5075397;28;20651;-70
2022/08/26 03:21:54;;;;;;;3.65;1.70;;;20.70;97.90;;;;;;5075511;28;20241;-70
2022/08/26 03:24:20;;;;;;;4.78;1.90;;;20.70;96.90;;;;;;5075503;28;20168;-70
2022/08/26 03:26:46;;;;;;;6.38;1.77;;;20.70;97.30;;;;;;5075459;28;20175;-70
2022/08/26 03:31:55;;;;;;;5.40;1.75;;;20.70;99.20;;;;;;5074826;28;20203;-70
2022/08/26 03:34:21;;;;;;;7.97;1.70;;;20.60;99.90;;;;;;5075244;28;20177;-69
2022/08/26 03:36:48;;;;;;;4.25;1.70;;;20.70;99.20;;;;;;5075132;28;20299;-70
2022/08/26 03:39:14;;;;;;;4.15;1.80;;;20.60;98.60;;;;;;5072707;28;20196;-70
2022/08/26 03:41:40;;;;;;;4.22;2.05;;;20.60;98.80;;;;;;5074997;28;20234;-69
2022/08/26 03:44:07;;;;;;;7.30;1.75;;;20.60;99.20;;;;;;5074854;28;20302;-70
2022/08/26 03:46:33;;;;;;;4.97;1.60;;;20.60;98.40;;;;;;5074452;28;20188;-70
2022/08/26 03:49:01;;;;;;;5.95;1.70;;;20.60;98.50;;;;;;5074884;28;20180;-70
2022/08/26 03:51:27;;;;;;;6.22;1.70;;;20.50;97.20;;;;;;5074719;28;20655;-70
2022/08/26 03:53:52;;;;;;;4.70;1.50;;;20.60;98.70;;;;;;5074874;28;20169;-70
2022/08/26 03:56:18;;;;;;;5.20;1.85;;;20.50;98.60;;;;;;5074431;28;20218;-70
2022/08/26 03:58:44;;;;;;;4.53;1.65;;;20.50;99.90;;;;;;5073939;28;20542;-70
2022/08/26 04:01:12;;;;;;;5.75;1.98;;;20.50;99.90;;;;;;5074648;28;20177;-70
2022/08/26 04:06:23;;;;;;;7.45;1.60;;;20.50;99.90;;;;;;5074309;28;20176;-70
2022/08/26 04:08:48;;;;;;;3.85;1.50;;;20.50;99.00;;;;;;5074003;28;20223;-70
2022/08/26 04:11:18;;;;;;;4.65;1.77;;;20.50;99.50;;;;;;5074165;28;20173;-70
2022/08/26 04:13:46;;;;;;;3.25;1.60;;;20.50;99.30;;;;;;5073854;28;20168;-70
2022/08/26 04:16:11;;;;;;;2.85;1.80;;;20.50;99.50;;;;;;5073782;28;20212;-70
2022/08/26 04:18:37;;;;;;;5.57;1.75;;;20.50;99.00;;;;;;5074284;28;20199;-70
2022/08/26 04:21:07;;;;;;;3.53;1.90;;;20.40;99.90;;;;;;5073979;28;20169;-70
2022/08/26 04:23:33;;;;;;;6.63;1.75;;;20.50;99.80;;;;;;5073670;28;20192;-70
2022/08/26 04:26:00;;;;;;;5.72;2.28;;;20.40;99.90;;;;;;5074209;28;20172;-70
2022/08/26 04:28:26;;;;;;;2.67;1.73;;;20.40;99.80;;;;;;5071694;28;20655;-70
2022/08/26 04:30:51;;;;;;;7.88;1.83;;;20.40;99.90;;;;;;5074219;28;20175;-70
2022/08/26 04:33:17;;;;;;;4.25;1.70;;;20.40;99.90;;;;;;5073945;28;20599;-70
2022/08/26 04:35:44;;;;;;;4.72;1.63;;;20.30;99.90;;;;;;5073244;28;20200;-70
2022/08/26 04:38:10;;;;;;;5.90;2.30;;;20.30;99.90;;;;;;5073729;28;20169;-70
2022/08/26 04:40:35;;;;;;;5.80;1.63;;;20.40;99.90;;;;;;5073656;28;20632;-70
2022/08/26 04:43:01;;;;;;;3.10;1.75;;;20.30;99.90;;;;;;5073498;28;20186;-70
2022/08/26 04:45:27;;;;;;;4.07;1.77;;;20.30;99.90;;;;;;5073571;28;20184;-71
2022/08/26 04:47:55;;;;;;;3.95;2.10;;;20.40;99.90;;;;;;5073690;28;20674;-71
2022/08/26 04:50:22;;;;;;;7.28;1.90;;;20.40;99.40;;;;;;5073488;28;20169;-71
2022/08/26 04:52:48;;;;;;;6.05;1.73;;;20.50;96.80;;;;;;5073117;28;20200;-70
2022/08/26 04:55:14;;;;;;;5.90;1.65;;;20.50;97.00;;;;;;5073171;28;20269;-70
2022/08/26 04:57:40;;;;;;;4.18;1.50;;;20.50;92.70;;;;;;5072704;28;20176;-69
2022/08/26 05:00:07;;;;;;;3.63;1.60;;;20.40;93.40;;;;;;5073184;28;20585;-69
2022/08/26 05:02:33;;;;;;;6.65;1.70;;;20.40;94.20;;;;;;5071941;28;20172;-69
2022/08/26 05:04:58;;;;;;;4.95;1.63;;;20.40;95.20;;;;;;5073329;28;20169;-69
2022/08/26 05:07:24;;;;;;;5.80;1.60;;;20.40;94.20;;;;;;5073027;28;20263;-71
2022/08/26 05:09:49;;;;;;;4.80;1.50;;;20.40;94.30;;;;;;5072746;28;20753;-71
2022/08/26 05:12:15;;;;;;;2.97;1.40;;;20.40;93.00;;;;;;5072537;28;20176;-71
2022/08/26 05:14:41;;;;;;;2.75;1.58;;;20.40;94.90;;;;;;5071860;28;20181;-70
2022/08/26 05:17:07;;;;;;;6.32;1.92;;;20.40;92.60;;;;;;5072625;28;20219;-70
2022/08/26 05:19:33;;;;;;;6.28;1.50;;;20.40;91.90;;;;;;5073233;28;20223;-70
2022/08/26 05:21:59;;;;;;;5.32;1.80;;;20.40;92.30;;;;;;5073131;28;20218;-70
2022/08/26 05:24:24;;;;;;;5.38;1.50;;;20.50;90.20;;;;;;5072445;28;20164;-71
2022/08/26 05:26:50;;;;;;;3.13;1.70;;;20.50;88.10;;;;;;5071275;28;20169;-70
2022/08/26 05:29:15;;;;;;;4.68;1.60;;;20.50;85.40;;;;;;5072502;28;20276;-71
2022/08/26 05:31:41;;;;;;;6.13;1.80;;;20.60;79.10;;;;;;5073063;28;20161;-71
2022/08/26 05:34:07;;;;;;;6.43;1.77;;;20.60;83.10;;;;;;5072620;28;20636;-71
2022/08/26 05:36:34;;;;;;;4.50;1.75;;;20.60;83.60;;;;;;5072613;28;20740;-71
2022/08/26 05:39:01;;;;;;;4.80;1.30;;;20.60;81.70;;;;;;5072519;28;20230;-71
2022/08/26 05:41:31;;;;;;;2.90;1.30;;;20.70;74.90;;;;;;5072575;28;20305;-70
2022/08/26 05:43:58;;;;;;;3.05;1.40;;;20.60;70.00;;;;;;5072692;28;20311;-70
2022/08/26 05:46:25;;;;;;;4.30;1.42;;;20.60;73.40;;;;;;5071902;28;20194;-71
2022/08/26 05:48:52;;;;;;;3.25;1.33;;;20.60;74.30;;;;;;5072301;28;20179;-70
2022/08/26 05:51:18;;;;;;;6.55;1.67;;;20.70;74.50;;;;;;5072435;28;20218;-70
2022/08/26 05:53:43;;;;;;;6.47;1.42;;;20.70;72.90;;;;;;5072052;28;20184;-69
2022/08/26 05:56:11;;;;;;;3.88;1.23;;;20.60;71.90;;;;;;5071571;28;20192;-71
2022/08/26 05:58:39;;;;;;;5.63;1.48;;;20.70;63.20;;;;;;5071997;28;20175;-71
2022/08/26 06:01:14;;;;;;;2.75;1.33;;;20.60;66.60;;;;;;5072129;28;20176;-71
2022/08/26 06:03:43;;;;;;;2.72;1.52;;;20.60;65.70;;;;;;5076365;28;20176;-71
2022/08/26 06:06:12;;;;;;;4.75;1.98;;;20.70;63.40;;;;;;5076015;28;20316;-70
2022/08/26 06:08:38;;;;;;;4.25;1.92;;;20.70;60.90;;;;;;5075833;28;20224;-69
2022/08/26 06:11:10;;;;;;;3.97;1.90;;;20.90;48.40;;;;;;5075824;28;20707;-71
2022/08/26 06:13:37;;;;;;;4.57;1.70;;;21.00;49.30;;;;;;5076212;28;20173;-71
2022/08/26 06:16:05;;;;;;;3.17;1.70;;;20.90;46.50;;;;;;5076349;28;20212;-71
2022/08/26 06:18:35;;;;;;;2.55;1.45;;;20.90;47.30;;;;;;5075185;28;20204;-70
2022/08/26 06:21:11;;;;;;;3.50;1.25;;;20.90;42.30;;;;;;5075849;28;20176;-70
2022/08/26 06:26:21;;;;;;;4.15;1.60;;;20.90;40.30;;;;;;5076086;28;20176;-70
2022/08/26 06:28:47;;;;;;;5.10;1.40;;;20.90;42.00;;;;;;5074176;28;20172;-72
2022/08/26 06:31:14;;;;;;;4.80;1.77;;;20.80;39.20;;;;;;5075320;28;20205;-72
2022/08/26 06:33:40;;;;;;;6.00;2.08;;;20.80;43.30;;;;;;5075280;28;20204;-71
2022/08/26 06:36:06;;;;;;;3.65;1.60;;;20.80;41.80;;;;;;5075133;28;20204;-70
2022/08/26 06:38:32;;;;;;;5.32;1.60;;;20.90;43.80;;;;;;5074445;28;20187;-70
2022/08/26 06:40:57;;;;;;;3.80;1.70;;;21.10;35.70;;;;;;5075476;28;20184;-69
2022/08/26 06:43:25;;;;;;;5.80;1.52;;;21.20;23.60;;;;;;5075542;28;20169;-71
2022/08/26 06:45:59;;;;;;;4.88;1.50;;;21.30;17.10;;;;;;5075182;28;20165;-71
2022/08/26 06:48:25;;;;;;;4.68;1.50;;;21.40;14.20;;;;;;5075576;28;20168;-71
2022/08/26 06:51:05;;;;;;;9.45;1.70;;;21.50;11.70;;;;;;5075332;28;20180;-71
2022/08/26 06:53:31;;;;;;;4.93;1.30;;;21.60;3.60;;;;;;5074715;28;20173;-71
2022/08/26 06:55:57;;;;;;;9.10;2.03;;;21.60;1.00;;;;;;5075223;28;20208;-71
2022/08/26 06:58:22;;;;;;;5.03;1.60;;;21.60;1.00;;;;;;5075066;28;20227;-71
2022/08/26 07:00:48;;;;;;;6.18;2.17;;;21.60;1.00;;;;;;5074905;28;20244;-71
2022/08/26 07:03:13;;;;;;;4.13;1.98;;;21.70;1.00;;;;;;5075256;28;20646;-70
2022/08/26 07:05:39;;;;;;;7.95;1.52;;;21.70;1.00;;;;;;5072532;28;20244;-69
2022/08/26 07:08:05;;;;;;;3.17;1.30;;;21.70;1.00;;;;;;5074221;28;20172;-71
2022/08/26 07:10:30;;;;;;;8.68;1.60;;;21.60;1.00;;;;;;5073803;28;20177;-71
2022/08/26 07:12:56;;;;;;;5.45;1.30;;;21.50;1.00;;;;;;5081695;28;20659;-71
2022/08/26 07:15:22;;;;;;;6.35;1.50;;;21.60;1.00;;;;;;5080623;28;20192;-70
2022/08/26 07:17:47;;;;;;;3.22;1.00;;;21.70;1.00;;;;;;5090219;28;20182;-71
2022/08/26 07:20:13;;;;;;;3.50;1.27;;;21.60;1.00;;;;;;5085634;28;20199;-71
2022/08/26 07:22:39;;;;;;;4.10;1.20;;;21.60;1.00;;;;;;5084601;28;20180;-72
2022/08/26 07:25:07;;;;;;;3.85;1.42;;;21.60;1.00;;;;;;5081312;28;20563;-72
2022/08/26 07:27:34;;;;;;;6.10;1.92;;;21.60;1.00;;;;;;5108383;28;20183;-70
2022/08/26 07:30:00;;;;;;;3.53;1.45;;;21.70;1.00;;;;;;5089091;28;20192;-71
2022/08/26 07:32:26;;;;;;;4.88;1.40;;;21.80;1.00;;;;;;5079399;28;20266;-71
2022/08/26 07:34:52;;;;;;;5.72;1.65;;;21.90;1.00;;;;;;5088066;28;20227;-72
2022/08/26 07:37:18;;;;;;;5.25;1.70;;;22.00;1.00;;;;;;5097694;28;20204;-70
2022/08/26 07:39:44;;;;;;;3.45;1.23;;;22.00;1.00;;;;;;5099255;28;20172;-71
2022/08/26 07:42:12;;;;;;;5.72;1.40;;;22.10;1.00;;;;;;5076695;28;20182;-72
2022/08/26 07:44:38;;;;;;;5.95;1.50;;;22.10;1.00;;;;;;5098816;28;20327;-71
2022/08/26 07:47:06;;;;;;;5.15;1.65;;;22.00;1.00;;;;;;5108218;28;20182;-71
2022/08/26 07:49:31;;;;;;;8.85;2.00;;;22.20;1.00;;;;;;5090962;28;20186;-72
2022/08/26 07:51:57;;;;;;;3.92;1.63;;;22.20;1.00;;;;;;5095710;28;20175;-72
2022/08/26 07:54:23;;;;;;;8.18;1.58;;;22.20;1.00;;;;;;5086135;28;20523;-71
2022/08/26 07:56:48;;;;;;;7.63;1.40;;;22.20;1.00;;;;;;5090639;28;20211;-72
2022/08/26 07:59:16;;;;;;;7.63;2.00;;;22.20;1.00;;;;;;5096584;28;20176;-72
2022/08/26 08:01:43;;;;;;;7.05;1.50;;;22.20;1.00;;;;;;5076427;28;20184;-71
2022/08/26 08:04:09;;;;;;;5.78;1.90;;;22.20;1.00;;;;;;5090186;28;20164;-70
2022/08/26 08:06:36;;;;;;;5.25;1.85;;;22.40;1.00;;;;;;5100829;28;20164;-71
2022/08/26 08:09:03;;;;;;;5.32;1.40;;;22.50;1.00;;;;;;5099793;28;20229;-72
2022/08/26 08:11:29;;;;;;;3.63;1.25;;;22.60;1.00;;;;;;5078964;28;20184;-71
2022/08/26 08:13:56;;;;;;;6.70;2.45;;;22.50;1.00;;;;;;5088238;27;20183;-71
2022/08/26 08:16:23;;;;;;;6.50;1.95;;;22.40;1.00;;;;;;5091227;28;20749;-71
2022/08/26 08:18:48;;;;;;;9.32;2.10;;;22.30;1.00;;;;;;5080279;28;20205;-71
2022/08/26 08:21:14;;;;;;;8.90;1.77;;;22.30;1.00;;;;;;5078210;28;20249;-71
2022/08/26 08:23:39;;;;;;;2.72;2.00;;;22.40;1.00;;;;;;5091263;28;20184;-71
2022/08/26 08:26:07;;;;;;;3.35;1.52;;;22.40;1.00;;;;;;5090584;28;20244;-71
2022/08/26 08:28:34;;;;;;;4.63;1.40;;;22.30;1.00;;;;;;5076176;28;20183;-71
2022/08/26 08:31:00;;;;;;;5.32;2.28;;;22.40;1.00;;;;;;5076090;28;20719;-71
2022/08/26 08:33:28;;;;;;;6.55;2.05;;;22.40;1.00;;;;;;5083847;28;20334;-72
2022/08/26 08:35:55;;;;;;;5.22;1.63;;;22.50;1.00;;;;;;5075041;28;20208;-71
2022/08/26 08:38:20;;;;;;;4.78;1.30;;;22.70;1.00;;;;;;5091005;28;20182;-70
2022/08/26 08:40:46;;;;;;;6.55;1.60;;;22.80;1.00;;;;;;5101037;28;20254;-71
2022/08/26 08:43:17;;;;;;;4.60;1.40;;;22.90;1.00;;;;;;5094420;28;20184;-71
2022/08/26 08:45:52;;;;;;;3.80;1.58;;;23.10;1.00;;;;;;5086583;28;20242;-71
2022/08/26 08:48:28;;;;;;;4.65;1.55;;;23.30;1.00;;;;;;5078368;28;20180;-72
2022/08/26 08:51:07;;;;;;;15.88;2.30;;;23.20;1.00;;;;;;5088742;28;20250;-70
2022/08/26 08:53:40;;;;;;;4.72;1.80;;;23.10;1.00;;;;;;5076745;28;20232;-72
2022/08/26 08:56:27;;;;;;;2.60;1.45;;;23.00;1.00;;;;;;5077424;28;20207;-72
2022/08/26 08:59:05;;;;;;;4.50;1.40;;;23.10;1.00;;;;;;5092417;28;20183;-72
2022/08/26 09:01:53;;;;;;;4.28;1.50;;;23.20;1.00;;;;;;5076994;28;20278;-72
2022/08/26 09:04:40;;;;;;;3.33;1.52;;;23.10;1.00;;;;;;5079226;28;20183;-71
2022/08/26 09:07:11;;;;;;;3.00;1.25;;;23.20;1.00;;;;;;5073197;28;20588;-72
2022/08/26 09:09:45;;;;;;;5.32;1.40;;;23.10;1.00;;;;;;5081394;28;20247;-71
2022/08/26 09:12:19;;;;;;;6.43;1.80;;;22.80;1.00;;;;;;5098848;28;20208;-72
2022/08/26 09:14:47;;;;;;;3.78;1.30;;;22.90;1.00;;;;;;5082689;28;20194;-72
2022/08/26 09:17:22;;;;;;;6.85;1.60;;;22.90;1.00;;;;;;5078389;28;20211;-73
2022/08/26 09:20:07;;;;;;;5.63;1.83;;;23.00;1.00;;;;;;5092781;28;20191;-72
2022/08/26 09:22:36;;;;;;;3.75;1.40;;;22.90;1.00;;;;;;5076326;28;20646;-72
2022/08/26 09:25:05;;;;;;;6.03;1.70;;;22.80;1.00;;;;;;5094441;28;20265;-71
2022/08/26 09:27:43;;;;;;;3.50;1.60;;;22.70;1.00;;;;;;5088864;28;20172;-72
2022/08/26 09:30:13;;;;;;;4.63;1.50;;;22.70;1.00;;;;;;5089207;28;20177;-73
2022/08/26 09:32:39;;;;;;;4.30;1.67;;;22.80;1.00;;;;;;5097815;28;20333;-73
2022/08/26 09:35:46;;;;;;;4.55;1.42;;;22.90;1.00;;;;;;5085037;28;20353;-72
2022/08/26 09:38:35;;;;;;;3.42;1.42;;;22.90;1.00;;;;;;5084555;28;20226;-75
2022/08/26 09:41:13;;;;;;;3.03;1.30;;;23.10;1.00;;;;;;5074106;28;20237;-73
2022/08/26 09:43:39;;;;;;;7.55;1.50;;;23.20;1.00;;;;;;5083859;28;20176;-73
2022/08/26 09:46:21;;;;;;;11.57;2.67;;;23.10;1.00;;;;;;5092314;28;20172;-72
2022/08/26 09:48:47;;;;;;;6.95;2.00;;;23.30;1.00;;;;;;5087413;28;20186;-72
2022/08/26 09:51:19;;;;;;;3.72;1.30;;;23.50;1.00;;;;;;5089553;28;20247;-73
2022/08/26 09:53:57;;;;;;;4.43;1.65;;;23.60;99.90;;;;;;5086235;28;20176;-72
2022/08/26 09:56:27;;;;;;;4.32;1.95;;;23.80;86.80;;;;;;5088924;28;20207;-74
2022/08/26 09:58:54;;;;;;;5.78;2.28;;;23.70;99.90;;;;;;5086531;28;20635;-72
2022/08/26 10:01:31;;;;;;;5.10;1.90;;;23.70;1.00;;;;;;5090493;28;20180;-74
2022/08/26 10:04:06;;;;;;;9.80;2.13;;;23.70;1.00;;;;;;5074525;28;21080;-72
2022/08/26 10:06:40;;;;;;;3.50;1.95;;;23.80;1.00;;;;;;5079519;28;20184;-72
2022/08/26 10:09:09;;;;;;;3.67;1.98;;;23.90;99.90;;;;;;5093987;28;20247;-73
2022/08/26 10:12:04;;;;;;;2.55;1.10;;;24.00;99.90;;;;;;5091229;28;20259;-72
2022/08/26 10:14:50;;;;;;;5.45;1.20;;;24.30;1.00;;;;;;5082077;28;20230;-72
2022/08/26 10:17:31;;;;;;;3.45;1.25;;;24.50;1.00;;;;;;5068484;28;20292;-72
2022/08/26 10:20:10;;;;;;;3.45;1.55;;;25.10;99.90;;;;;;5102329;28;20183;-73
2022/08/26 10:22:43;;;;;;;4.68;1.40;;;25.80;99.90;;;;;;5092254;28;20267;-73
2022/08/26 10:25:14;;;;;;;2.40;1.48;;;26.50;99.90;;;;;;5085739;28;20168;-75
2022/08/26 10:27:49;;;;;;;8.13;1.38;;;27.20;1.00;;;;;;5087135;28;20176;-75
2022/08/26 10:30:18;;;;;;;2.40;1.00;;;27.70;99.90;;;;;;5076613;28;20180;-75
2022/08/26 10:33:04;;;;;;;3.45;0.90;;;27.30;21.70;;;;;;5090273;28;20333;-74
2022/08/26 10:35:33;;;;;;;4.20;0.90;;;27.10;83.90;;;;;;5080999;28;20184;-73
2022/08/26 10:38:13;;;;;;;3.92;1.13;;;26.60;99.90;;;;;;5093424;28;20167;-74
2022/08/26 10:40:53;;;;;;;4.50;1.50;;;26.30;99.90;;;;;;5101751;28;20535;-74
2022/08/26 10:43:40;;;;;;;1.90;1.55;;;26.50;99.90;;;;;;5106909;28;20163;-74
2022/08/26 10:46:15;;;;;;;4.57;1.40;;;26.50;99.90;;;;;;5081267;28;20229;-73
2022/08/26 10:48:48;;;;;;;3.92;1.50;;;26.30;99.90;;;;;;5101636;28;20695;-73
2022/08/26 10:51:23;;;;;;;6.88;1.42;;;26.00;99.90;;;;;;5109626;28;20214;-72
2022/08/26 10:54:00;;;;;;;4.40;2.40;;;25.90;99.90;;;;;;5097911;28;20212;-72
2022/08/26 10:56:42;;;;;;;5.15;1.63;;;26.10;99.90;;;;;;5107634;28;20294;-73
2022/08/26 10:59:16;;;;;;;2.88;1.45;;;26.40;99.90;;;;;;5108452;28;20171;-73
2022/08/26 11:01:52;;;;;;;2.88;1.00;;;26.50;90.60;;;;;;5097943;28;20179;-76
2022/08/26 11:04:44;;;;;;;3.35;1.30;;;26.60;16.20;;;;;;5108355;28;20172;-75
2022/08/26 11:07:35;;;;;;;6.93;1.67;;;27.00;1.00;;;;;;5108914;28;20190;-76
2022/08/26 11:10:16;;;;;;;3.45;1.23;;;27.30;1.00;;;;;;5074889;28;20346;-75
2022/08/26 11:12:44;;;;;;;3.88;1.00;;;27.20;1.00;;;;;;5081230;28;20251;-76
2022/08/26 11:15:35;;;;;;;2.70;1.23;;;27.10;1.00;;;;;;5094003;28;20201;-74
2022/08/26 11:18:03;;;;;;;3.42;1.40;;;27.30;1.00;;;;;;5004427;28;20214;-74
2022/08/26 11:20:32;;;;;;;3.53;1.50;;;27.40;1.00;;;;;;5006273;28;20191;-74
2022/08/26 11:23:21;;;;;;;2.40;1.00;;;27.10;1.00;;;;;;5002716;28;20190;-74
2022/08/26 11:26:08;;;;;;;1.50;1.25;;;26.90;1.00;;;;;;5010197;28;20182;-75
2022/08/26 11:28:38;;;;;;;6.00;1.40;;;26.90;1.00;;;;;;5000483;28;20214;-75
2022/08/26 11:31:10;;;;;;;3.10;1.70;;;27.20;1.00;;;;;;4988859;28;20332;-75
2022/08/26 11:33:46;;;;;;;3.88;1.15;;;27.70;1.00;;;;;;4992557;28;20370;-75
2022/08/26 11:36:36;;;;;;;2.03;0.90;;;28.40;1.00;;;;;;4988309;28;20974;-77
2022/08/26 11:39:29;;;;;;;1.92;0.98;;;28.40;1.00;;;;;;4984398;28;20249;-74
2022/08/26 11:42:19;;;;;;;2.25;1.58;;;28.60;1.00;;;;;;4989710;28;20190;-75
2022/08/26 11:44:45;;;;;;;2.92;1.63;;;28.00;1.00;;;;;;4989028;28;20886;-76
2022/08/26 11:47:15;;;;;;;2.45;1.42;;;27.90;1.00;;;;;;4990575;28;20228;-76
2022/08/26 11:49:41;;;;;;;3.40;1.38;;;27.80;1.00;;;;;;4989949;28;20191;-76
2022/08/26 11:52:27;;;;;;;2.33;1.40;;;28.00;1.00;;;;;;4990195;28;20886;-75
2022/08/26 11:55:13;;;;;;;4.10;1.42;;;28.10;99.90;;;;;;5023450;28;20271;-76
2022/08/26 11:58:00;;;;;;;2.22;1.13;;;27.80;1.00;;;;;;5063555;28;21404;-75
2022/08/26 12:00:48;;;;;;;1.15;0.85;;;27.80;1.00;;;;;;5071562;28;20211;-74
2022/08/26 12:03:21;;;;;;;3.20;1.60;;;27.50;1.00;;;;;;5090150;28;20168;-74
2022/08/26 12:05:49;;;;;;;4.43;1.35;;;27.20;1.00;;;;;;5093660;28;20172;-75
2022/08/26 12:08:22;;;;;;;1.20;1.00;;;26.60;1.00;;;;;;5080093;28;20381;-76
2022/08/26 12:10:48;;;;;;;2.88;1.40;;;26.70;1.00;;;;;;5093133;28;20241;-74
2022/08/26 12:13:25;;;;;;;1.67;1.15;;;26.80;1.00;;;;;;5087562;28;20638;-74
2022/08/26 12:15:56;;;;;;;3.58;1.42;;;27.20;1.00;;;;;;5107116;28;20738;-75
2022/08/26 12:18:30;;;;;;;2.42;1.17;;;27.40;1.00;;;;;;5105518;28;20256;-75
2022/08/26 12:20:59;;;;;;;6.93;1.42;;;27.20;1.00;;;;;;5089485;28;20758;-76
2022/08/26 12:23:38;;;;;;;3.08;1.30;;;27.70;1.00;;;;;;5095580;28;20610;-75
2022/08/26 12:26:06;;;;;;;2.25;1.48;;;27.80;1.00;;;;;;5077379;28;20175;-75
2022/08/26 12:28:32;;;;;;;2.63;1.63;;;27.80;1.00;;;;;;5080486;28;20199;-74
2022/08/26 12:31:03;;;;;;;5.40;1.92;;;28.10;1.00;;;;;;5081140;28;20298;-75
2022/08/26 12:33:30;;;;;;;3.58;1.90;;;28.20;99.90;;;;;;5080433;28;20192;-74
2022/08/26 12:35:58;;;;;;;4.22;1.73;;;28.30;99.90;;;;;;5078289;28;20211;-73
2022/08/26 12:38:25;;;;;;;4.07;1.55;;;28.50;99.90;;;;;;5093063;28;20230;-74
2022/08/26 12:40:52;;;;;;;2.70;2.00;;;28.50;99.90;;;;;;5093037;28;20232;-75
2022/08/26 12:43:39;;;;;;;6.45;2.22;;;28.60;99.90;;;;;;5091245;28;20177;-75
2022/08/26 12:46:06;;;;;;;3.10;1.77;;;28.50;99.90;;;;;;5087582;28;20314;-76
2022/08/26 12:48:34;;;;;;;3.60;1.90;;;28.50;99.90;;;;;;5110134;28;20168;-75
2022/08/26 12:51:01;;;;;;;4.47;2.00;;;27.90;99.90;;;;;;5109358;28;20174;-76
2022/08/26 12:53:32;;;;;;;4.57;1.70;;;27.70;99.90;;;;;;5109409;28;20178;-75
2022/08/26 12:56:15;;;;;;;1.88;1.77;;;27.40;99.90;;;;;;5105334;28;20192;-76
2022/08/26 12:58:42;;;;;;;2.35;2.05;;;27.70;99.90;;;;;;5108181;28;20166;-75
2022/08/26 13:01:07;;;;;;;5.88;3.90;;;27.20;99.90;;;;;;5106762;28;20182;-76
2022/08/26 13:03:33;;;;;;;5.53;3.42;;;26.90;99.90;;;;;;5088237;28;20188;-74
2022/08/26 13:06:30;;;;;;;4.10;2.63;;;26.70;1.00;;;;;;5077960;28;20173;-76
2022/08/26 13:09:01;;;;;;;3.88;2.45;;;26.60;1.00;;;;;;5074706;28;20299;-74
2022/08/26 13:11:29;;;;;;;2.95;1.88;;;26.50;1.00;;;;;;5070865;28;20172;-74
2022/08/26 13:14:04;;;;;;;2.75;1.80;;;26.10;1.00;;;;;;5076679;28;20179;-74